Time;durP1;ratioP1;P1;durP2;ratioP2;P2;SDS_P1;SDS_P2;PMS_P1;PMS_P2;Temp;Humidity;BMP_temperature;BMP_pressure;BME280_temperature;BME280_humidity;BME280_pressure;Samples;Min_cycle;Max_cycle;Signal;HPM_P1;HPM_P2
2021/08/31 00:02:26;;;;;;;33.73;23.90;;;;;;;;;;5010388;28;20211;-71
2021/08/31 00:04:54;;;;;;;31.53;21.83;;;;;;;;;;5010662;28;20273;-71
2021/08/31 00:07:20;;;;;;;36.93;23.87;;;;;;;;;;5010629;28;20220;-71
2021/08/31 00:09:47;;;;;;;38.37;24.00;;;;;;;;;;5012633;28;20239;-71
2021/08/31 00:12:13;;;;;;;41.43;24.30;;;;;;;;;;5011138;28;20209;-71
2021/08/31 00:14:40;;;;;;;36.20;23.27;;;;;;;;;;5014999;28;20244;-71
2021/08/31 00:17:08;;;;;;;35.53;24.10;;;;;;;;;;5011581;28;20216;-71
2021/08/31 00:19:35;;;;;;;35.73;22.23;;;;;;;;;;5011251;28;20212;-71
2021/08/31 00:22:03;;;;;;;37.63;24.57;;;;;;;;;;5011506;28;20599;-71
2021/08/31 00:24:29;;;;;;;34.23;22.27;;;;;;;;;;5011397;28;20231;-71
2021/08/31 00:26:56;;;;;;;38.47;23.83;;;;;;;;;;5012232;28;20279;-71
2021/08/31 00:29:22;;;;;;;39.70;24.73;;;;;;;;;;5009980;28;20262;-71
2021/08/31 00:31:49;;;;;;;40.20;24.57;;;;;;;;;;5010989;28;20261;-71
2021/08/31 00:34:15;;;;;;;37.27;23.77;;;;;;;;;;5009590;28;20242;-71
2021/08/31 00:36:42;;;;;;;44.00;26.03;;;;;;;;;;5007962;28;20221;-72
2021/08/31 00:39:10;;;;;;;40.37;22.67;;;;;;;;;;5011916;28;20232;-72
2021/08/31 00:41:36;;;;;;;37.07;22.27;;;;;;;;;;5010989;28;20220;-71
2021/08/31 00:44:04;;;;;;;39.73;23.10;;;;;;;;;;5011502;28;20347;-71
2021/08/31 00:46:30;;;;;;;39.53;23.60;;;;;;;;;;5013050;28;20220;-71
2021/08/31 00:48:57;;;;;;;39.43;23.27;;;;;;;;;;5012172;28;20675;-71
2021/08/31 00:51:24;;;;;;;39.37;22.67;;;;;;;;;;5009423;28;20267;-71
2021/08/31 00:53:51;;;;;;;34.60;21.13;;;;;;;;;;5010715;28;20278;-71
2021/08/31 00:56:20;;;;;;;39.67;24.40;;;;;;;;;;5011610;28;20615;-71
2021/08/31 00:58:47;;;;;;;40.00;23.53;;;;;;;;;;5013321;28;20653;-71
2021/08/31 01:01:13;;;;;;;31.03;20.43;;;;;;;;;;5011946;28;20330;-71
2021/08/31 01:03:42;;;;;;;31.17;20.93;;;;;;;;;;5009971;28;20268;-71
2021/08/31 01:06:08;;;;;;;29.00;19.73;;;;;;;;;;5009057;28;20283;-71
2021/08/31 01:08:35;;;;;;;33.97;20.30;;;;;;;;;;5009323;28;20235;-71
2021/08/31 01:11:02;;;;;;;30.57;19.37;;;;;;;;;;5009803;28;20711;-71
2021/08/31 01:13:31;;;;;;;32.47;19.40;;;;;;;;;;5011302;28;20236;-71
2021/08/31 01:15:57;;;;;;;29.87;19.90;;;;;;;;;;5010614;28;20208;-71
2021/08/31 01:18:24;;;;;;;34.87;19.97;;;;;;;;;;5009586;28;20220;-71
2021/08/31 01:20:52;;;;;;;35.10;20.07;;;;;;;;;;5009631;28;20827;-71
2021/08/31 01:23:19;;;;;;;35.40;19.13;;;;;;;;;;5008374;28;20228;-71
2021/08/31 01:25:47;;;;;;;28.03;17.37;;;;;;;;;;5010137;28;20220;-71
2021/08/31 01:28:18;;;;;;;34.67;18.37;;;;;;;;;;5011337;28;20702;-71
2021/08/31 01:30:46;;;;;;;32.07;17.87;;;;;;;;;;5010650;28;20722;-71
2021/08/31 01:33:12;;;;;;;28.00;16.90;;;;;;;;;;5010954;28;20265;-71
2021/08/31 01:35:39;;;;;;;31.70;17.17;;;;;;;;;;5011622;28;20206;-71
2021/08/31 01:38:05;;;;;;;30.93;16.33;;;;;;;;;;5010025;28;20306;-71
2021/08/31 01:40:32;;;;;;;34.33;17.57;;;;;;;;;;5009861;28;20262;-71
2021/08/31 01:42:59;;;;;;;33.77;16.27;;;;;;;;;;5010240;28;20217;-71
2021/08/31 01:45:26;;;;;;;28.70;16.40;;;;;;;;;;5010008;28;20245;-71
2021/08/31 01:47:52;;;;;;;26.67;15.37;;;;;;;;;;5008848;28;20220;-71
2021/08/31 01:50:19;;;;;;;23.57;16.07;;;;;;;;;;5009261;28;20253;-71
2021/08/31 01:52:45;;;;;;;26.10;15.20;;;;;;;;;;5008360;28;20244;-71
2021/08/31 01:55:12;;;;;;;28.27;15.77;;;;;;;;;;5009444;28;20302;-71
2021/08/31 01:57:38;;;;;;;23.83;14.47;;;;;;;;;;5011327;28;20269;-71
2021/08/31 02:00:07;;;;;;;26.53;14.07;;;;;;;;;;5006746;28;20795;-71
2021/08/31 02:02:34;;;;;;;30.80;16.47;;;;;;;;;;5009408;28;20624;-71
2021/08/31 02:05:00;;;;;;;26.63;15.37;;;;;;;;;;5009034;28;20619;-71
2021/08/31 02:07:26;;;;;;;26.57;14.70;;;;;;;;;;5009969;28;20227;-71
2021/08/31 02:09:53;;;;;;;27.37;15.83;;;;;;;;;;5009001;28;20227;-71
2021/08/31 02:12:20;;;;;;;24.33;15.17;;;;;;;;;;5012263;28;20312;-71
2021/08/31 02:14:46;;;;;;;23.37;14.73;;;;;;;;;;5010676;28;20294;-71
2021/08/31 02:17:15;;;;;;;26.37;15.23;;;;;;;;;;5007951;28;20267;-71
2021/08/31 02:19:42;;;;;;;30.90;15.17;;;;;;;;;;5008741;28;20231;-71
2021/08/31 02:22:08;;;;;;;26.73;15.60;;;;;;;;;;5010321;28;20595;-71
2021/08/31 02:24:34;;;;;;;22.53;14.67;;;;;;;;;;5008152;28;20224;-71
2021/08/31 02:27:01;;;;;;;25.10;15.63;;;;;;;;;;5008296;28;20219;-71
2021/08/31 02:29:27;;;;;;;30.10;15.57;;;;;;;;;;5009602;28;20221;-71
2021/08/31 02:31:53;;;;;;;31.50;16.43;;;;;;;;;;5010787;28;20263;-71
2021/08/31 02:34:21;;;;;;;30.20;15.57;;;;;;;;;;5008512;28;20267;-71
2021/08/31 02:36:48;;;;;;;27.60;16.90;;;;;;;;;;5007981;28;20261;-70
2021/08/31 02:39:14;;;;;;;30.50;16.67;;;;;;;;;;5007415;28;20282;-70
2021/08/31 02:41:40;;;;;;;27.60;16.47;;;;;;;;;;5007396;28;20216;-70
2021/08/31 02:44:07;;;;;;;26.57;16.80;;;;;;;;;;5010456;28;20278;-70
2021/08/31 02:46:33;;;;;;;26.53;15.10;;;;;;;;;;5005820;28;20217;-70
2021/08/31 02:49:00;;;;;;;29.20;15.40;;;;;;;;;;5009007;28;20271;-70
2021/08/31 02:51:28;;;;;;;30.63;16.93;;;;;;;;;;5008481;28;20270;-70
2021/08/31 02:53:54;;;;;;;29.53;15.97;;;;;;;;;;5008802;28;20236;-70
2021/08/31 02:56:20;;;;;;;24.87;15.40;;;;;;;;;;5006746;28;20264;-70
2021/08/31 02:58:47;;;;;;;31.23;16.70;;;;;;;;;;5006787;28;20270;-70
2021/08/31 03:01:31;;;;;;;28.17;16.43;;;;;;;;;;5008370;28;20606;-70
2021/08/31 03:03:59;;;;;;;27.47;15.00;;;;;;;;;;5008802;28;20270;-70
2021/08/31 03:06:26;;;;;;;27.37;15.10;;;;;;;;;;5009975;28;20591;-70
2021/08/31 03:08:54;;;;;;;21.93;13.70;;;;;;;;;;5008334;28;20231;-71
2021/08/31 03:11:21;;;;;;;27.23;14.10;;;;;;;;;;5009185;28;20215;-70
2021/08/31 03:13:48;;;;;;;29.07;16.23;;;;;;;;;;5009279;28;20849;-71
2021/08/31 03:16:14;;;;;;;30.57;15.80;;;;;;;;;;5008963;28;20656;-71
2021/08/31 03:18:40;;;;;;;32.70;15.80;;;;;;;;;;5009324;28;20622;-71
2021/08/31 03:21:07;;;;;;;26.93;14.80;;;;;;;;;;5009397;28;20404;-70
2021/08/31 03:23:33;;;;;;;33.40;15.90;;;;;;;;;;5006852;28;20237;-70
2021/08/31 03:26:01;;;;;;;27.77;14.40;;;;;;;;;;5008066;28;20263;-70
2021/08/31 03:28:27;;;;;;;26.73;15.83;;;;;;;;;;5007764;28;20211;-71
2021/08/31 03:30:55;;;;;;;25.97;14.87;;;;;;;;;;5007451;28;20208;-71
2021/08/31 03:33:21;;;;;;;30.10;15.90;;;;;;;;;;5006427;28;20214;-71
2021/08/31 03:35:48;;;;;;;24.77;14.83;;;;;;;;;;5006717;28;20290;-70
2021/08/31 03:38:14;;;;;;;30.40;15.97;;;;;;;;;;5009409;28;20240;-70
2021/08/31 03:40:40;;;;;;;28.03;13.83;;;;;;;;;;5007220;28;20867;-70
2021/08/31 03:43:08;;;;;;;26.93;15.33;;;;;;;;;;5009474;28;20220;-71
2021/08/31 03:45:34;;;;;;;26.50;14.20;;;;;;;;;;5007490;28;20216;-71
2021/08/31 03:48:01;;;;;;;29.03;15.43;;;;;;;;;;5008876;28;20262;-71
2021/08/31 03:50:27;;;;;;;29.77;15.53;;;;;;;;;;5007049;28;20263;-71
2021/08/31 03:52:54;;;;;;;27.17;14.53;;;;;;;;;;5008780;28;20722;-71
2021/08/31 03:55:20;;;;;;;22.37;14.13;;;;;;;;;;5009664;28;20298;-71
2021/08/31 03:57:46;;;;;;;28.03;15.63;;;;;;;;;;5008300;28;20270;-71
2021/08/31 04:00:15;;;;;;;26.33;14.73;;;;;;;;;;5007896;28;20247;-71
2021/08/31 04:02:41;;;;;;;25.37;15.63;;;;;;;;;;5008076;28;20274;-71
2021/08/31 04:05:09;;;;;;;32.10;16.63;;;;;;;;;;5007010;28;20211;-71
2021/08/31 04:07:35;;;;;;;26.93;15.10;;;;;;;;;;5007264;28;20216;-71
2021/08/31 04:10:02;;;;;;;28.30;14.70;;;;;;;;;;5008369;28;20311;-71
2021/08/31 04:12:28;;;;;;;31.00;14.67;;;;;;;;;;5009189;28;20223;-70
2021/08/31 04:14:54;;;;;;;22.53;13.97;;;;;;;;;;5008660;28;20249;-71
2021/08/31 04:17:22;;;;;;;22.97;15.70;;;;;;;;;;5006424;28;20351;-71
2021/08/31 04:19:48;;;;;;;26.97;13.90;;;;;;;;;;5005928;28;20217;-71
2021/08/31 04:22:15;;;;;;;24.93;14.47;;;;;;;;;;5009305;28;20362;-71
2021/08/31 04:24:41;;;;;;;29.60;16.43;;;;;;;;;;5007270;28;20229;-71
2021/08/31 04:27:08;;;;;;;25.93;16.10;;;;;;;;;;5007041;28;20267;-71
2021/08/31 04:29:34;;;;;;;26.57;15.37;;;;;;;;;;5006355;28;20330;-71
2021/08/31 04:32:01;;;;;;;28.15;17.48;;;;;;;;;;5004461;28;20448;-74
2021/08/31 04:34:28;;;;;;;25.93;16.57;;;;;;;;;;5007711;28;20301;-74
2021/08/31 04:36:55;;;;;;;28.03;15.90;;;;;;;;;;5006668;28;20281;-74
2021/08/31 04:39:21;;;;;;;27.90;14.20;;;;;;;;;;5006044;28;20230;-74
2021/08/31 04:41:47;;;;;;;28.83;17.67;;;;;;;;;;5005162;28;20236;-74
2021/08/31 04:44:14;;;;;;;27.17;17.10;;;;;;;;;;5008087;28;20224;-74
2021/08/31 04:46:40;;;;;;;30.27;16.73;;;;;;;;;;5011198;28;20729;-74
2021/08/31 04:49:07;;;;;;;29.43;16.03;;;;;;;;;;5010417;28;20609;-75
2021/08/31 04:51:34;;;;;;;20.00;14.67;;;;;;;;;;5011396;28;20585;-74
2021/08/31 04:54:01;;;;;;;24.40;14.50;;;;;;;;;;5012209;28;20289;-74
2021/08/31 04:56:27;;;;;;;28.87;16.23;;;;;;;;;;5006768;28;20235;-74
2021/08/31 04:58:53;;;;;;;28.67;15.57;;;;;;;;;;5008673;28;20215;-74
2021/08/31 05:01:20;;;;;;;24.27;15.73;;;;;;;;;;5006632;28;20255;-74
2021/08/31 05:03:47;;;;;;;22.73;14.63;;;;;;;;;;5010231;28;20215;-74
2021/08/31 05:06:13;;;;;;;25.77;16.10;;;;;;;;;;5009412;28;20230;-74
2021/08/31 05:08:41;;;;;;;25.40;15.40;;;;;;;;;;5012102;28;20228;-74
2021/08/31 05:11:07;;;;;;;22.90;14.60;;;;;;;;;;5007586;28;20294;-74
2021/08/31 05:13:39;;;;;;;24.97;16.30;;;;;;;;;;5007845;28;20216;-74
2021/08/31 05:16:06;;;;;;;26.37;15.40;;;;;;;;;;5009330;28;20221;-74
2021/08/31 05:18:35;;;;;;;24.43;14.93;;;;;;;;;;5011184;28;20215;-74
2021/08/31 05:21:01;;;;;;;28.60;14.87;;;;;;;;;;5007539;28;20558;-74
2021/08/31 05:23:28;;;;;;;18.00;13.67;;;;;;;;;;5007382;28;20323;-74
2021/08/31 05:25:55;;;;;;;26.77;14.83;;;;;;;;;;5008003;28;21012;-74
2021/08/31 05:28:22;;;;;;;23.83;14.30;;;;;;;;;;5008233;28;20221;-74
2021/08/31 05:30:48;;;;;;;24.53;14.00;;;;;;;;;;5006306;28;20278;-74
2021/08/31 05:33:15;;;;;;;26.70;14.53;;;;;;;;;;5009501;28;20281;-75
2021/08/31 05:35:41;;;;;;;23.67;13.20;;;;;;;;;;5009878;28;20262;-74
2021/08/31 05:38:07;;;;;;;19.73;13.67;;;;;;;;;;5007517;28;20230;-74
2021/08/31 05:40:34;;;;;;;18.97;13.30;;;;;;;;;;5008856;28;20213;-74
2021/08/31 05:43:02;;;;;;;24.10;13.87;;;;;;;;;;5009194;28;20715;-74
2021/08/31 05:45:29;;;;;;;19.43;14.17;;;;;;;;;;5008135;28;20575;-74
2021/08/31 05:47:55;;;;;;;28.53;14.83;;;;;;;;;;5007558;28;20307;-74
2021/08/31 05:50:22;;;;;;;22.87;13.40;;;;;;;;;;5005442;28;20232;-73
2021/08/31 05:52:48;;;;;;;21.63;13.43;;;;;;;;;;5006961;28;20640;-73
2021/08/31 05:55:15;;;;;;;19.03;13.17;;;;;;;;;;5006652;28;20321;-73
2021/08/31 05:57:41;;;;;;;23.80;13.80;;;;;;;;;;5005859;28;20226;-73
2021/08/31 06:00:11;;;;;;;20.50;13.87;;;;;;;;;;5007096;28;20252;-74
2021/08/31 06:02:38;;;;;;;22.60;14.27;;;;;;;;;;5006466;28;20220;-73
2021/08/31 06:05:05;;;;;;;19.17;13.83;;;;;;;;;;5007707;28;20218;-73
2021/08/31 06:07:34;;;;;;;20.77;14.43;;;;;;;;;;5007129;28;20622;-73
2021/08/31 06:10:01;;;;;;;18.87;13.27;;;;;;;;;;5008684;28;20237;-73
2021/08/31 06:12:27;;;;;;;22.27;14.13;;;;;;;;;;5007192;28;21088;-73
2021/08/31 06:14:54;;;;;;;20.40;13.00;;;;;;;;;;5007369;28;20251;-73
2021/08/31 06:17:22;;;;;;;21.77;14.03;;;;;;;;;;5008247;28;20271;-74
2021/08/31 06:19:49;;;;;;;17.20;12.60;;;;;;;;;;5009454;28;20683;-73
2021/08/31 06:22:16;;;;;;;18.60;12.83;;;;;;;;;;5007558;28;20218;-73
2021/08/31 06:24:42;;;;;;;18.47;14.37;;;;;;;;;;5012709;28;20225;-73
2021/08/31 06:27:08;;;;;;;20.07;13.63;;;;;;;;;;5006159;28;20215;-73
2021/08/31 06:29:35;;;;;;;21.67;13.17;;;;;;;;;;5008941;28;20821;-73
2021/08/31 06:32:01;;;;;;;18.33;12.63;;;;;;;;;;5007119;28;20210;-73
2021/08/31 06:34:29;;;;;;;19.67;13.23;;;;;;;;;;5007799;28;20223;-73
2021/08/31 06:36:55;;;;;;;16.37;12.63;;;;;;;;;;5005893;28;20242;-73
2021/08/31 06:39:22;;;;;;;20.50;13.00;;;;;;;;;;5008372;28;20675;-73
2021/08/31 06:41:48;;;;;;;17.33;11.53;;;;;;;;;;5008307;28;20220;-73
2021/08/31 06:44:15;;;;;;;16.00;11.63;;;;;;;;;;5008600;28;20215;-73
2021/08/31 06:46:41;;;;;;;17.83;11.53;;;;;;;;;;5010066;28;20316;-72
2021/08/31 06:49:07;;;;;;;16.57;10.87;;;;;;;;;;5009036;28;20218;-73
2021/08/31 06:51:35;;;;;;;15.17;10.83;;;;;;;;;;5009168;28;20231;-72
2021/08/31 06:54:02;;;;;;;16.27;11.77;;;;;;;;;;5007059;28;20697;-72
2021/08/31 06:56:28;;;;;;;18.60;10.97;;;;;;;;;;5008641;28;20234;-72
2021/08/31 06:58:54;;;;;;;16.80;10.93;;;;;;;;;;5006928;28;20268;-72
2021/08/31 07:01:21;;;;;;;16.30;10.63;;;;;;;;;;5006732;28;20259;-72
2021/08/31 07:03:47;;;;;;;16.03;10.43;;;;;;;;;;5004876;28;20766;-72
2021/08/31 07:06:13;;;;;;;15.57;9.63;;;;;;;;;;5004767;28;20669;-72
2021/08/31 07:08:41;;;;;;;15.80;9.57;;;;;;;;;;5007335;28;20244;-73
2021/08/31 07:11:08;;;;;;;13.40;9.43;;;;;;;;;;5009185;28;20224;-72
2021/08/31 07:13:34;;;;;;;16.97;9.97;;;;;;;;;;5007277;28;20313;-72
2021/08/31 07:16:00;;;;;;;13.47;9.20;;;;;;;;;;5007231;28;20233;-72
2021/08/31 07:18:27;;;;;;;15.03;9.50;;;;;;;;;;5006571;28;20373;-72
2021/08/31 07:20:53;;;;;;;14.80;8.40;;;;;;;;;;5007063;28;20623;-72
2021/08/31 07:23:20;;;;;;;14.60;8.23;;;;;;;;;;5007968;28;20243;-73
2021/08/31 07:25:48;;;;;;;14.43;8.93;;;;;;;;;;5006636;28;20212;-73
2021/08/31 07:28:15;;;;;;;13.47;8.80;;;;;;;;;;5009631;28;20665;-72
2021/08/31 07:30:42;;;;;;;12.57;8.63;;;;;;;;;;5008817;28;20334;-73
2021/08/31 07:33:09;;;;;;;12.87;8.27;;;;;;;;;;5009210;28;20230;-73
2021/08/31 07:35:36;;;;;;;15.20;8.60;;;;;;;;;;5006596;28;20244;-73
2021/08/31 07:38:03;;;;;;;14.00;7.73;;;;;;;;;;5003307;28;20700;-73
2021/08/31 07:40:30;;;;;;;15.13;8.57;;;;;;;;;;5004298;28;20223;-73
2021/08/31 07:42:57;;;;;;;12.67;8.27;;;;;;;;;;5005400;28;20218;-73
2021/08/31 07:45:24;;;;;;;11.60;8.77;;;;;;;;;;5006638;28;20285;-73
2021/08/31 07:47:51;;;;;;;14.33;7.67;;;;;;;;;;5005921;28;21096;-73
2021/08/31 07:50:18;;;;;;;11.90;8.37;;;;;;;;;;5008628;28;20216;-73
2021/08/31 07:52:45;;;;;;;12.93;7.43;;;;;;;;;;5006468;28;20211;-73
2021/08/31 07:55:12;;;;;;;15.03;6.53;;;;;;;;;;5005918;28;20342;-73
2021/08/31 07:57:39;;;;;;;12.77;7.00;;;;;;;;;;5007873;28;20215;-73
2021/08/31 08:00:08;;;;;;;12.93;7.30;;;;;;;;;;5006287;28;20301;-73
2021/08/31 08:02:35;;;;;;;15.07;7.53;;;;;;;;;;5006711;28;20570;-73
2021/08/31 08:05:02;;;;;;;15.67;7.37;;;;;;;;;;5006561;28;20663;-73
2021/08/31 08:07:28;;;;;;;12.80;7.03;;;;;;;;;;5006262;28;20566;-74
2021/08/31 08:09:56;;;;;;;12.17;7.27;;;;;;;;;;5007361;28;20236;-74
2021/08/31 08:12:23;;;;;;;13.50;7.27;;;;;;;;;;5007815;28;20218;-73
2021/08/31 08:14:50;;;;;;;12.27;6.83;;;;;;;;;;5008159;28;20231;-73
2021/08/31 08:17:18;;;;;;;12.07;6.47;;;;;;;;;;5008205;28;20735;-73
2021/08/31 08:19:46;;;;;;;13.43;6.90;;;;;;;;;;5009644;28;20274;-74
2021/08/31 08:22:13;;;;;;;9.87;5.73;;;;;;;;;;5013936;28;20647;-74
2021/08/31 08:24:40;;;;;;;11.40;6.30;;;;;;;;;;5012746;28;20246;-73
2021/08/31 08:27:07;;;;;;;12.80;6.43;;;;;;;;;;5014234;28;20201;-73
2021/08/31 08:29:37;;;;;;;11.10;6.60;;;;;;;;;;5011501;28;20550;-73
2021/08/31 08:32:04;;;;;;;13.73;6.30;;;;;;;;;;5012228;28;20241;-73
2021/08/31 08:34:31;;;;;;;12.90;6.50;;;;;;;;;;5008577;28;20230;-73
2021/08/31 08:36:59;;;;;;;12.27;6.63;;;;;;;;;;5010088;28;20265;-73
2021/08/31 08:39:25;;;;;;;12.17;6.30;;;;;;;;;;5009067;28;20227;-73
2021/08/31 08:41:52;;;;;;;17.83;7.40;;;;;;;;;;5007832;28;20223;-73
2021/08/31 08:44:19;;;;;;;12.63;6.80;;;;;;;;;;5008989;28;20770;-73
2021/08/31 08:46:47;;;;;;;11.77;5.83;;;;;;;;;;5009190;28;20269;-74
2021/08/31 08:49:14;;;;;;;17.87;6.97;;;;;;;;;;5007135;28;20940;-73
2021/08/31 08:51:42;;;;;;;12.63;6.53;;;;;;;;;;5012038;28;20270;-73
2021/08/31 08:54:08;;;;;;;10.67;6.63;;;;;;;;;;5008784;28;20594;-72
2021/08/31 08:56:35;;;;;;;17.57;6.37;;;;;;;;;;5008451;28;20562;-73
2021/08/31 08:59:02;;;;;;;14.60;7.00;;;;;;;;;;5010251;28;20285;-73
2021/08/31 09:01:41;;;;;;;11.90;6.40;;;;;;;;;;5009290;28;20729;-73
2021/08/31 09:04:07;;;;;;;11.50;6.67;;;;;;;;;;5007570;28;20261;-73
2021/08/31 09:06:34;;;;;;;12.77;6.13;;;;;;;;;;5009465;28;20712;-73
2021/08/31 09:09:04;;;;;;;9.63;6.43;;;;;;;;;;5010861;28;20275;-72
2021/08/31 09:11:31;;;;;;;13.80;6.60;;;;;;;;;;5008939;28;20217;-72
2021/08/31 09:14:23;;;;;;;12.53;6.93;;;;;;;;;;5007800;28;20239;-72
2021/08/31 09:16:51;;;;;;;11.43;6.70;;;;;;;;;;5008537;28;20220;-72
2021/08/31 09:19:18;;;;;;;14.57;6.73;;;;;;;;;;5007965;28;20259;-73
2021/08/31 09:21:47;;;;;;;11.07;6.43;;;;;;;;;;5008255;28;20648;-73
2021/08/31 09:24:15;;;;;;;9.90;6.10;;;;;;;;;;5011009;28;20238;-72
2021/08/31 09:26:44;;;;;;;13.97;6.97;;;;;;;;;;5010444;28;20712;-72
2021/08/31 09:29:19;;;;;;;13.17;6.50;;;;;;;;;;5008055;28;20608;-72
2021/08/31 09:31:49;;;;;;;13.23;6.20;;;;;;;;;;5008210;28;20218;-72
2021/08/31 09:34:38;;;;;;;14.27;7.00;;;;;;;;;;5007708;28;20272;-72
2021/08/31 09:37:27;;;;;;;11.13;6.23;;;;;;;;;;5007760;28;20239;-72
2021/08/31 09:40:06;;;;;;;11.90;6.33;;;;;;;;;;5008484;28;20228;-72
2021/08/31 09:42:32;;;;;;;11.80;6.33;;;;;;;;;;5010572;28;20220;-72
2021/08/31 09:45:04;;;;;;;14.47;6.73;;;;;;;;;;5009581;28;20274;-72
2021/08/31 09:47:35;;;;;;;10.53;5.90;;;;;;;;;;5006781;28;20216;-71
2021/08/31 09:50:02;;;;;;;11.37;5.80;;;;;;;;;;5008608;28;20217;-71
2021/08/31 09:52:29;;;;;;;11.77;6.43;;;;;;;;;;5011357;28;20302;-71
2021/08/31 09:54:56;;;;;;;10.57;5.80;;;;;;;;;;5007612;28;20236;-71
2021/08/31 09:57:32;;;;;;;10.83;6.47;;;;;;;;;;5009022;28;20687;-71
2021/08/31 10:00:00;;;;;;;11.33;5.77;;;;;;;;;;5008070;28;20707;-71
2021/08/31 10:02:27;;;;;;;11.07;6.20;;;;;;;;;;5009164;28;20627;-71
2021/08/31 10:04:55;;;;;;;14.20;5.50;;;;;;;;;;5006853;28;20289;-71
2021/08/31 10:07:23;;;;;;;10.43;5.93;;;;;;;;;;5008926;28;20216;-71
2021/08/31 10:09:50;;;;;;;11.30;5.67;;;;;;;;;;5007119;28;20322;-71
2021/08/31 10:12:19;;;;;;;10.03;5.33;;;;;;;;;;5009591;28;20277;-71
2021/08/31 10:14:52;;;;;;;12.63;6.20;;;;;;;;;;5008305;28;20232;-71
2021/08/31 10:17:19;;;;;;;13.70;6.27;;;;;;;;;;5007906;28;20544;-71
2021/08/31 10:19:51;;;;;;;13.93;6.60;;;;;;;;;;5008367;28;20556;-71
2021/08/31 10:22:18;;;;;;;13.57;6.47;;;;;;;;;;5007099;28;20212;-71
2021/08/31 10:24:45;;;;;;;11.73;5.83;;;;;;;;;;5008686;28;20287;-71
2021/08/31 10:27:32;;;;;;;15.93;6.60;;;;;;;;;;5008695;28;20251;-71
2021/08/31 10:30:40;;;;;;;11.73;6.83;;;;;;;;;;5006074;28;20219;-71
2021/08/31 10:33:35;;;;;;;14.37;6.27;;;;;;;;;;5009790;28;20243;-71
2021/08/31 10:36:03;;;;;;;13.67;6.17;;;;;;;;;;5004783;28;20709;-71
2021/08/31 10:38:52;;;;;;;14.33;6.07;;;;;;;;;;5007113;28;20227;-71
2021/08/31 10:41:46;;;;;;;14.00;6.37;;;;;;;;;;5002205;28;20542;-71
2021/08/31 10:44:35;;;;;;;13.33;6.10;;;;;;;;;;5006922;28;20602;-72
2021/08/31 10:47:31;;;;;;;12.17;6.43;;;;;;;;;;5006780;28;20211;-71
2021/08/31 10:50:16;;;;;;;13.00;5.97;;;;;;;;;;5007547;28;20215;-71
2021/08/31 10:52:46;;;;;;;13.90;5.80;;;;;;;;;;5007695;28;20223;-71
2021/08/31 10:55:38;;;;;;;15.97;6.67;;;;;;;;;;5005288;28;20243;-72
2021/08/31 10:58:08;;;;;;;13.63;5.90;;;;;;;;;;4993471;28;20323;-72
2021/08/31 11:00:54;;;;;;;10.57;5.67;;;;;;;;;;5005924;28;20251;-71
2021/08/31 11:03:41;;;;;;;11.07;5.93;;;;;;;;;;5004264;28;20247;-72
2021/08/31 11:06:36;;;;;;;14.93;6.20;;;;;;;;;;5005314;28;20303;-72
2021/08/31 11:09:22;;;;;;;14.97;6.33;;;;;;;;;;5005841;28;20234;-72
2021/08/31 11:12:00;;;;;;;11.80;6.53;;;;;;;;;;5008917;28;20664;-71
2021/08/31 11:14:39;;;;;;;14.50;6.40;;;;;;;;;;5004358;28;20247;-72
2021/08/31 11:17:05;;;;;;;11.97;6.90;;;;;;;;;;5004669;28;20285;-72
2021/08/31 11:19:33;;;;;;;13.07;6.53;;;;;;;;;;5008672;28;20219;-72
2021/08/31 11:21:59;;;;;;;14.23;5.80;;;;;;;;;;5008529;28;20312;-72
2021/08/31 11:24:26;;;;;;;14.13;5.70;;;;;;;;;;5005576;28;20797;-72
2021/08/31 11:27:00;;;;;;;12.47;6.17;;;;;;;;;;5004677;28;20219;-72
2021/08/31 11:29:27;;;;;;;14.20;6.60;;;;;;;;;;5006472;28;20214;-72
2021/08/31 11:32:01;;;;;;;13.40;5.87;;;;;;;;;;5006319;28;20278;-72
2021/08/31 11:34:28;;;;;;;9.93;5.37;;;;;;;;;;5007291;28;20219;-72
2021/08/31 11:37:04;;;;;;;12.07;5.43;;;;;;;;;;5005510;28;20238;-72
2021/08/31 11:39:31;;;;;;;12.60;5.20;;;;;;;;;;5006150;28;20229;-72
2021/08/31 11:41:58;;;;;;;10.40;5.40;;;;;;;;;;5009059;28;20584;-72
2021/08/31 11:44:24;;;;;;;11.50;5.20;;;;;;;;;;5004759;28;20708;-72
2021/08/31 11:46:52;;;;;;;11.93;5.60;;;;;;;;;;5009369;28;20220;-72
2021/08/31 11:49:21;;;;;;;15.17;5.67;;;;;;;;;;5007327;28;20685;-72
2021/08/31 11:52:02;;;;;;;10.40;5.43;;;;;;;;;;5006012;28;20280;-72
2021/08/31 11:54:31;;;;;;;12.67;5.80;;;;;;;;;;5005555;28;21149;-72
2021/08/31 11:56:59;;;;;;;16.10;6.00;;;;;;;;;;5011513;28;21044;-72
2021/08/31 11:59:36;;;;;;;14.50;6.60;;;;;;;;;;5009677;28;20694;-72
2021/08/31 12:02:11;;;;;;;12.83;6.63;;;;;;;;;;5009992;28;20223;-72
2021/08/31 12:04:37;;;;;;;15.80;6.57;;;;;;;;;;5012284;28;20216;-72
2021/08/31 12:07:07;;;;;;;10.70;5.93;;;;;;;;;;5010896;28;20278;-72
2021/08/31 12:09:33;;;;;;;12.03;6.30;;;;;;;;;;5010910;28;20256;-72
2021/08/31 12:12:00;;;;;;;19.13;6.63;;;;;;;;;;5009329;28;20216;-72
2021/08/31 12:14:26;;;;;;;14.17;5.80;;;;;;;;;;5009374;28;20231;-72
2021/08/31 12:16:53;;;;;;;12.53;5.80;;;;;;;;;;5012675;28;20285;-73
2021/08/31 12:19:20;;;;;;;13.37;5.80;;;;;;;;;;5012745;28;20208;-74
2021/08/31 12:22:07;;;;;;;18.47;7.00;;;;;;;;;;5010043;28;20917;-74
2021/08/31 12:24:33;;;;;;;10.87;5.80;;;;;;;;;;5010468;28;20230;-74
2021/08/31 12:27:08;;;;;;;12.60;5.90;;;;;;;;;;5006928;28;20656;-74
2021/08/31 12:29:50;;;;;;;12.23;5.90;;;;;;;;;;5010590;28;20636;-74
2021/08/31 12:32:22;;;;;;;11.23;5.00;;;;;;;;;;5005739;28;20250;-73
2021/08/31 12:34:49;;;;;;;13.37;5.23;;;;;;;;;;5012419;28;20279;-73
2021/08/31 12:37:27;;;;;;;11.90;5.43;;;;;;;;;;5012279;28;20775;-73
2021/08/31 12:40:12;;;;;;;11.67;6.03;;;;;;;;;;5009044;28;20280;-71
2021/08/31 12:42:39;;;;;;;12.47;5.80;;;;;;;;;;5011084;28;20710;-71
2021/08/31 12:45:06;;;;;;;13.57;5.43;;;;;;;;;;5009786;28;20288;-74
2021/08/31 12:47:33;;;;;;;12.93;5.37;;;;;;;;;;5009175;28;20216;-73
2021/08/31 12:50:06;;;;;;;10.30;4.97;;;;;;;;;;5006340;28;20238;-73
2021/08/31 12:52:34;;;;;;;11.70;4.50;;;;;;;;;;5009317;28;20303;-71
2021/08/31 12:55:13;;;;;;;9.90;5.10;;;;;;;;;;5010259;28;20238;-71
2021/08/31 12:57:40;;;;;;;12.60;5.43;;;;;;;;;;5009270;28;20748;-72
2021/08/31 13:00:19;;;;;;;15.87;5.73;;;;;;;;;;5010391;28;20241;-71
2021/08/31 13:02:47;;;;;;;14.00;5.20;;;;;;;;;;5009112;28;20222;-71
2021/08/31 13:05:14;;;;;;;13.57;5.40;;;;;;;;;;5010338;28;20255;-71
2021/08/31 13:07:42;;;;;;;12.90;6.17;;;;;;;;;;5008435;28;20208;-72
2021/08/31 13:10:08;;;;;;;16.07;6.67;;;;;;;;;;5007635;28;20224;-71
2021/08/31 13:12:35;;;;;;;12.20;5.93;;;;;;;;;;5008406;28;20320;-71
2021/08/31 13:15:01;;;;;;;11.87;5.17;;;;;;;;;;5012913;28;20272;-71
2021/08/31 13:17:28;;;;;;;15.07;6.23;;;;;;;;;;5007622;28;20323;-71
2021/08/31 13:19:55;;;;;;;10.90;5.50;;;;;;;;;;5008298;28;20678;-71
2021/08/31 13:22:21;;;;;;;11.47;5.50;;;;;;;;;;5010451;28;20267;-71
2021/08/31 13:24:49;;;;;;;12.93;5.33;;;;;;;;;;5011433;28;20226;-71
2021/08/31 13:27:15;;;;;;;13.50;4.90;;;;;;;;;;5007521;28;20258;-71
2021/08/31 13:29:42;;;;;;;10.13;5.50;;;;;;;;;;5008851;28;20660;-71
2021/08/31 13:32:09;;;;;;;14.23;5.13;;;;;;;;;;5008353;28;20212;-71
2021/08/31 13:34:35;;;;;;;14.30;5.90;;;;;;;;;;5007266;28;20244;-71
2021/08/31 13:37:02;;;;;;;8.43;4.30;;;;;;;;;;5008269;28;20655;-71
2021/08/31 13:39:29;;;;;;;14.70;5.27;;;;;;;;;;5008744;28;20360;-71
2021/08/31 13:41:57;;;;;;;12.57;4.73;;;;;;;;;;5007000;28;20236;-73
2021/08/31 13:44:23;;;;;;;21.00;5.50;;;;;;;;;;5009062;28;20667;-71
2021/08/31 13:46:50;;;;;;;16.13;5.40;;;;;;;;;;5010138;28;20216;-71
2021/08/31 13:49:16;;;;;;;10.47;4.60;;;;;;;;;;5008663;28;20223;-71
2021/08/31 13:51:42;;;;;;;12.60;4.90;;;;;;;;;;5007630;28;20218;-71
2021/08/31 13:54:09;;;;;;;13.17;5.17;;;;;;;;;;5009443;28;20241;-71
2021/08/31 13:56:36;;;;;;;17.90;5.20;;;;;;;;;;5009290;28;20211;-71
2021/08/31 13:59:04;;;;;;;11.80;5.20;;;;;;;;;;5009583;28;20298;-71
2021/08/31 14:01:30;;;;;;;13.47;4.83;;;;;;;;;;5007606;28;20773;-71
2021/08/31 14:03:59;;;;;;;11.87;4.97;;;;;;;;;;5009752;28;20246;-71
2021/08/31 14:06:25;;;;;;;14.10;5.80;;;;;;;;;;5009046;28;20212;-73
2021/08/31 14:08:52;;;;;;;14.60;5.50;;;;;;;;;;5010357;28;20311;-71
2021/08/31 14:11:18;;;;;;;13.83;5.53;;;;;;;;;;5008313;28;20230;-71
2021/08/31 14:13:44;;;;;;;16.10;5.20;;;;;;;;;;5007804;28;20275;-71
2021/08/31 14:16:12;;;;;;;15.07;5.70;;;;;;;;;;5007113;28;20211;-71
2021/08/31 14:18:43;;;;;;;13.20;4.57;;;;;;;;;;5008307;28;20258;-71
2021/08/31 14:21:10;;;;;;;12.57;5.03;;;;;;;;;;5005533;28;20739;-71
2021/08/31 14:23:36;;;;;;;13.13;5.50;;;;;;;;;;5007294;28;20699;-71
2021/08/31 14:26:02;;;;;;;15.30;5.67;;;;;;;;;;5008631;28;20352;-71
2021/08/31 14:28:29;;;;;;;11.70;4.63;;;;;;;;;;5010962;28;20208;-71
2021/08/31 14:30:55;;;;;;;13.87;5.30;;;;;;;;;;5009639;28;20228;-71
2021/08/31 14:33:23;;;;;;;12.27;5.03;;;;;;;;;;5008573;28;20223;-71